sensor_id;sensor_type;location;lat;lon;timestamp;P1;durP1;ratioP1;P2;durP2;ratioP2
66139;SDS011;52945;51.908;8.364;2023-12-14T14:22:49;7.38;;;3.38;;
66139;SDS011;52945;51.908;8.364;2023-12-14T14:25:53;11.98;;;4.35;;
66139;SDS011;52945;51.908;8.364;2023-12-14T14:28:54;9.43;;;4.47;;
66139;SDS011;52945;51.908;8.364;2023-12-14T14:31:59;11.13;;;4.18;;
66139;SDS011;52945;51.908;8.364;2023-12-14T14:35:00;8.90;;;3.92;;
66139;SDS011;52945;51.908;8.364;2023-12-14T14:38:01;8.93;;;4.10;;
66139;SDS011;52945;51.908;8.364;2023-12-14T14:41:02;10.05;;;4.85;;
66139;SDS011;52945;51.908;8.364;2023-12-14T14:44:03;10.07;;;5.10;;
66139;SDS011;52945;51.908;8.364;2023-12-14T14:47:04;11.55;;;5.25;;
66139;SDS011;52945;51.908;8.364;2023-12-14T14:50:05;12.30;;;4.93;;
66139;SDS011;52945;51.908;8.364;2023-12-14T14:53:07;10.00;;;4.88;;
66139;SDS011;52945;51.908;8.364;2023-12-14T14:56:08;10.75;;;4.97;;
66139;SDS011;52945;51.908;8.364;2023-12-14T15:02:11;8.95;;;4.05;;
66139;SDS011;52945;51.908;8.364;2023-12-14T15:05:11;8.70;;;4.05;;
66139;SDS011;52945;51.908;8.364;2023-12-14T15:08:12;9.45;;;4.50;;
66139;SDS011;52945;51.908;8.364;2023-12-14T15:11:13;13.85;;;5.28;;
66139;SDS011;52945;51.908;8.364;2023-12-14T15:14:14;8.82;;;4.38;;
66139;SDS011;52945;51.908;8.364;2023-12-14T15:17:14;10.07;;;4.15;;
66139;SDS011;52945;51.908;8.364;2023-12-14T15:20:18;12.60;;;5.10;;
66139;SDS011;52945;51.908;8.364;2023-12-14T15:23:19;10.32;;;4.40;;
66139;SDS011;52945;51.908;8.364;2023-12-14T15:26:20;10.00;;;4.95;;
66139;SDS011;52945;51.908;8.364;2023-12-14T15:29:20;10.70;;;4.43;;
66139;SDS011;52945;51.908;8.364;2023-12-14T15:32:21;9.70;;;4.55;;
66139;SDS011;52945;51.908;8.364;2023-12-14T15:35:22;10.27;;;4.38;;
66139;SDS011;52945;51.908;8.364;2023-12-14T15:38:22;12.38;;;5.03;;
66139;SDS011;52945;51.908;8.364;2023-12-14T15:41:23;9.73;;;4.68;;
66139;SDS011;52945;51.908;8.364;2023-12-14T15:44:24;15.40;;;5.38;;
66139;SDS011;52945;51.908;8.364;2023-12-14T15:47:24;10.50;;;4.20;;
66139;SDS011;52945;51.908;8.364;2023-12-14T15:50:25;9.15;;;4.18;;
66139;SDS011;52945;51.908;8.364;2023-12-14T15:53:26;9.82;;;4.97;;
66139;SDS011;52945;51.908;8.364;2023-12-14T15:56:26;13.48;;;5.60;;
66139;SDS011;52945;51.908;8.364;2023-12-14T16:02:30;11.32;;;4.85;;
66139;SDS011;52945;51.908;8.364;2023-12-14T16:05:31;10.90;;;5.18;;
66139;SDS011;52945;51.908;8.364;2023-12-14T16:08:31;10.95;;;4.80;;
66139;SDS011;52945;51.908;8.364;2023-12-14T16:11:32;13.63;;;5.22;;
66139;SDS011;52945;51.908;8.364;2023-12-14T16:14:32;11.57;;;5.40;;
66139;SDS011;52945;51.908;8.364;2023-12-14T16:17:33;9.95;;;5.00;;
66139;SDS011;52945;51.908;8.364;2023-12-14T16:20:34;12.55;;;5.60;;
66139;SDS011;52945;51.908;8.364;2023-12-14T16:23:34;12.40;;;5.35;;
66139;SDS011;52945;51.908;8.364;2023-12-14T16:26:37;10.48;;;4.55;;
66139;SDS011;52945;51.908;8.364;2023-12-14T16:29:41;12.07;;;5.63;;
66139;SDS011;52945;51.908;8.364;2023-12-14T16:32:42;16.35;;;5.80;;
66139;SDS011;52945;51.908;8.364;2023-12-14T16:35:43;11.50;;;5.43;;
66139;SDS011;52945;51.908;8.364;2023-12-14T16:38:44;12.20;;;5.30;;
66139;SDS011;52945;51.908;8.364;2023-12-14T16:41:45;13.82;;;5.65;;
66139;SDS011;52945;51.908;8.364;2023-12-14T16:44:45;12.85;;;5.55;;
66139;SDS011;52945;51.908;8.364;2023-12-14T16:47:46;13.75;;;5.68;;
66139;SDS011;52945;51.908;8.364;2023-12-14T16:50:46;12.43;;;5.45;;
66139;SDS011;52945;51.908;8.364;2023-12-14T16:53:53;13.95;;;5.55;;
66139;SDS011;52945;51.908;8.364;2023-12-14T16:56:55;15.85;;;6.50;;
66139;SDS011;52945;51.908;8.364;2023-12-14T16:59:56;14.40;;;5.75;;
66139;SDS011;52945;51.908;8.364;2023-12-14T17:02:56;13.73;;;5.45;;
66139;SDS011;52945;51.908;8.364;2023-12-14T17:05:57;14.45;;;6.03;;
66139;SDS011;52945;51.908;8.364;2023-12-14T17:08:57;12.75;;;5.35;;
66139;SDS011;52945;51.908;8.364;2023-12-14T17:11:58;13.32;;;5.85;;
66139;SDS011;52945;51.908;8.364;2023-12-14T17:14:59;13.75;;;7.20;;
66139;SDS011;52945;51.908;8.364;2023-12-14T17:17:59;15.65;;;6.57;;
66139;SDS011;52945;51.908;8.364;2023-12-14T17:21:00;15.50;;;6.65;;
66139;SDS011;52945;51.908;8.364;2023-12-14T17:24:01;15.23;;;6.20;;
66139;SDS011;52945;51.908;8.364;2023-12-14T17:27:03;16.98;;;6.25;;
66139;SDS011;52945;51.908;8.364;2023-12-14T17:30:04;15.77;;;6.03;;
66139;SDS011;52945;51.908;8.364;2023-12-14T17:33:06;16.25;;;6.28;;
66139;SDS011;52945;51.908;8.364;2023-12-14T17:36:07;14.77;;;5.97;;
66139;SDS011;52945;51.908;8.364;2023-12-14T17:39:08;15.65;;;6.38;;
66139;SDS011;52945;51.908;8.364;2023-12-14T17:42:09;15.25;;;5.63;;
66139;SDS011;52945;51.908;8.364;2023-12-14T17:45:10;16.27;;;6.25;;
66139;SDS011;52945;51.908;8.364;2023-12-14T17:48:11;17.15;;;6.47;;
66139;SDS011;52945;51.908;8.364;2023-12-14T17:51:11;16.95;;;6.68;;
66139;SDS011;52945;51.908;8.364;2023-12-14T17:54:12;15.57;;;6.55;;
66139;SDS011;52945;51.908;8.364;2023-12-14T17:57:14;15.20;;;6.43;;
66139;SDS011;52945;51.908;8.364;2023-12-14T18:00:14;16.70;;;6.22;;
66139;SDS011;52945;51.908;8.364;2023-12-14T18:03:15;17.67;;;6.07;;
66139;SDS011;52945;51.908;8.364;2023-12-14T18:06:17;18.92;;;6.57;;
66139;SDS011;52945;51.908;8.364;2023-12-14T18:09:17;21.70;;;6.60;;
66139;SDS011;52945;51.908;8.364;2023-12-14T18:12:18;17.50;;;6.57;;
66139;SDS011;52945;51.908;8.364;2023-12-14T18:15:18;14.95;;;6.22;;
66139;SDS011;52945;51.908;8.364;2023-12-14T18:18:19;16.27;;;6.32;;
66139;SDS011;52945;51.908;8.364;2023-12-14T18:21:20;17.77;;;6.78;;
66139;SDS011;52945;51.908;8.364;2023-12-14T18:24:21;16.38;;;6.22;;
66139;SDS011;52945;51.908;8.364;2023-12-14T18:27:24;17.45;;;6.53;;
66139;SDS011;52945;51.908;8.364;2023-12-14T18:30:25;15.25;;;6.25;;
66139;SDS011;52945;51.908;8.364;2023-12-14T18:33:25;20.00;;;7.53;;
66139;SDS011;52945;51.908;8.364;2023-12-14T18:36:27;18.30;;;7.10;;
66139;SDS011;52945;51.908;8.364;2023-12-14T18:39:28;20.42;;;7.57;;
66139;SDS011;52945;51.908;8.364;2023-12-14T18:42:28;20.30;;;7.20;;
66139;SDS011;52945;51.908;8.364;2023-12-14T18:45:29;16.33;;;6.45;;
66139;SDS011;52945;51.908;8.364;2023-12-14T18:48:30;22.15;;;7.05;;
66139;SDS011;52945;51.908;8.364;2023-12-14T18:51:31;13.70;;;6.20;;
66139;SDS011;52945;51.908;8.364;2023-12-14T18:54:31;16.98;;;7.18;;
66139;SDS011;52945;51.908;8.364;2023-12-14T18:57:32;18.63;;;7.03;;
66139;SDS011;52945;51.908;8.364;2023-12-14T19:00:33;19.60;;;7.30;;
66139;SDS011;52945;51.908;8.364;2023-12-14T19:03:34;15.80;;;6.50;;
66139;SDS011;52945;51.908;8.364;2023-12-14T19:06:35;21.42;;;7.55;;
66139;SDS011;52945;51.908;8.364;2023-12-14T19:09:36;20.55;;;7.32;;
66139;SDS011;52945;51.908;8.364;2023-12-14T19:12:36;19.27;;;7.00;;
66139;SDS011;52945;51.908;8.364;2023-12-14T19:15:37;17.95;;;7.55;;
66139;SDS011;52945;51.908;8.364;2023-12-14T19:18:41;21.75;;;6.82;;
66139;SDS011;52945;51.908;8.364;2023-12-14T19:21:42;22.58;;;7.40;;
66139;SDS011;52945;51.908;8.364;2023-12-14T19:24:47;22.75;;;7.85;;
66139;SDS011;52945;51.908;8.364;2023-12-14T19:27:47;18.08;;;6.45;;
66139;SDS011;52945;51.908;8.364;2023-12-14T19:30:52;17.90;;;6.53;;
66139;SDS011;52945;51.908;8.364;2023-12-14T19:33:52;19.10;;;7.25;;
66139;SDS011;52945;51.908;8.364;2023-12-14T19:36:53;19.05;;;7.22;;
66139;SDS011;52945;51.908;8.364;2023-12-14T19:39:54;19.25;;;7.25;;
66139;SDS011;52945;51.908;8.364;2023-12-14T19:42:54;20.13;;;7.25;;
66139;SDS011;52945;51.908;8.364;2023-12-14T19:45:55;21.90;;;7.07;;
66139;SDS011;52945;51.908;8.364;2023-12-14T19:48:56;20.40;;;7.63;;
66139;SDS011;52945;51.908;8.364;2023-12-14T19:51:56;21.00;;;7.85;;
66139;SDS011;52945;51.908;8.364;2023-12-14T19:54:57;18.85;;;7.40;;
66139;SDS011;52945;51.908;8.364;2023-12-14T19:57:58;19.80;;;7.60;;
66139;SDS011;52945;51.908;8.364;2023-12-14T20:00:58;20.90;;;7.10;;
66139;SDS011;52945;51.908;8.364;2023-12-14T20:03:59;19.52;;;7.75;;
66139;SDS011;52945;51.908;8.364;2023-12-14T20:07:03;18.33;;;7.00;;
66139;SDS011;52945;51.908;8.364;2023-12-14T20:10:04;19.20;;;6.53;;
66139;SDS011;52945;51.908;8.364;2023-12-14T20:13:05;21.38;;;7.13;;
